createdAt,value
2018-11-06T00:00:37.039Z,8.70
2018-11-06T00:01:37.023Z,9.10
2018-11-06T00:02:37.003Z,8.50
2018-11-06T00:03:36.992Z,8.90
2018-11-06T00:04:36.971Z,9.10
2018-11-06T00:05:36.954Z,8.10
2018-11-06T00:06:36.929Z,8.60
2018-11-06T00:07:36.912Z,9.00
2018-11-06T00:08:36.893Z,8.90
2018-11-06T00:09:36.873Z,9.00
2018-11-06T00:10:36.853Z,9.20
2018-11-06T00:11:36.838Z,9.20
2018-11-06T00:12:36.819Z,9.60
2018-11-06T00:13:36.801Z,10.00
2018-11-06T00:14:36.779Z,9.40
2018-11-06T00:15:36.771Z,9.20
2018-11-06T00:16:36.743Z,9.60
2018-11-06T00:17:36.727Z,8.80
2018-11-06T00:18:36.706Z,10.10
2018-11-06T00:19:36.687Z,9.80
2018-11-06T00:20:36.671Z,9.60
2018-11-06T00:21:36.648Z,10.20
2018-11-06T00:22:36.634Z,9.80
2018-11-06T00:23:36.614Z,9.30
2018-11-06T00:24:36.595Z,9.90
2018-11-06T00:25:36.575Z,10.20
2018-11-06T00:26:36.559Z,9.60
2018-11-06T00:27:36.538Z,9.60
2018-11-06T00:28:36.520Z,10.30
2018-11-06T00:29:36.503Z,9.50
2018-11-06T00:30:36.479Z,10.20
2018-11-06T00:31:36.465Z,10.10
2018-11-06T00:32:36.448Z,10.10
2018-11-06T00:33:36.427Z,9.70
2018-11-06T00:34:36.409Z,9.30
2018-11-06T00:35:36.394Z,10.00
2018-11-06T00:36:36.371Z,10.40
2018-11-06T00:37:36.349Z,9.40
2018-11-06T00:38:36.335Z,9.90
2018-11-06T00:39:36.316Z,9.90
2018-11-06T00:40:36.296Z,10.30
2018-11-06T00:41:36.274Z,10.40
2018-11-06T00:42:36.252Z,10.00
2018-11-06T00:43:36.241Z,9.50
2018-11-06T00:44:36.218Z,10.70
2018-11-06T00:45:36.207Z,9.90
2018-11-06T00:46:36.185Z,11.00
2018-11-06T00:47:36.167Z,9.60
2018-11-06T00:48:36.146Z,9.90
2018-11-06T00:49:36.125Z,10.30
2018-11-06T00:50:36.109Z,9.40
2018-11-06T00:51:36.088Z,10.40
2018-11-06T00:52:36.070Z,10.30
2018-11-06T00:53:36.049Z,10.60
2018-11-06T00:54:36.032Z,10.50
2018-11-06T00:55:36.013Z,10.80
2018-11-06T00:56:35.990Z,9.90
2018-11-06T00:57:35.974Z,10.30
2018-11-06T00:58:35.952Z,9.90
2018-11-06T00:59:35.939Z,10.50
2018-11-06T01:00:35.918Z,10.70
2018-11-06T01:01:35.898Z,10.20
2018-11-06T01:02:35.884Z,9.80
2018-11-06T01:03:35.858Z,11.50
2018-11-06T01:04:35.844Z,10.30
2018-11-06T01:05:35.830Z,9.80
2018-11-06T01:06:35.800Z,10.70
2018-11-06T01:07:35.786Z,10.40
2018-11-06T01:08:35.766Z,10.60
2018-11-06T01:09:35.747Z,10.70
2018-11-06T01:10:35.728Z,10.70
2018-11-06T01:11:35.705Z,11.30
2018-11-06T01:12:35.706Z,10.20
2018-11-06T01:13:35.675Z,10.40
2018-11-06T01:14:35.649Z,13.70
2018-11-06T01:15:35.628Z,10.10
2018-11-06T01:16:35.610Z,10.60
2018-11-06T01:17:35.593Z,10.90
2018-11-06T01:18:35.572Z,10.40
2018-11-06T01:19:35.557Z,10.20
2018-11-06T01:20:35.538Z,10.60
2018-11-06T01:21:35.516Z,10.90
2018-11-06T01:22:35.500Z,10.60
2018-11-06T01:23:35.480Z,10.80
2018-11-06T01:24:35.513Z,10.50
2018-11-06T01:25:35.494Z,11.10
2018-11-06T01:26:35.423Z,11.20
2018-11-06T01:27:35.409Z,10.90
2018-11-06T01:28:35.384Z,11.10
2018-11-06T01:29:35.366Z,10.10
2018-11-06T01:30:35.343Z,10.90
2018-11-06T01:31:35.326Z,10.70
2018-11-06T01:32:35.309Z,11.00
2018-11-06T01:33:35.288Z,11.00
2018-11-06T01:34:35.271Z,10.90
2018-11-06T01:35:35.248Z,11.00
2018-11-06T01:36:35.234Z,11.00
2018-11-06T01:37:35.212Z,10.90
2018-11-06T01:38:35.189Z,10.80
2018-11-06T01:39:35.171Z,10.80
2018-11-06T01:40:35.152Z,10.90
2018-11-06T01:41:35.137Z,10.70
2018-11-06T01:42:35.116Z,10.90
2018-11-06T01:43:35.099Z,10.40
2018-11-06T01:44:35.077Z,10.80
2018-11-06T01:45:35.060Z,11.10
2018-11-06T01:46:35.040Z,10.50
2018-11-06T01:47:35.018Z,10.80
2018-11-06T01:48:34.997Z,10.90
2018-11-06T01:49:34.983Z,11.10
2018-11-06T01:50:34.964Z,10.60
2018-11-06T01:51:34.943Z,11.40
2018-11-06T01:52:34.926Z,11.00
2018-11-06T01:53:34.902Z,10.80
2018-11-06T01:54:34.880Z,10.90
2018-11-06T01:55:34.866Z,11.10
2018-11-06T01:56:34.844Z,10.50
2018-11-06T01:57:34.826Z,11.20
2018-11-06T01:58:34.807Z,10.80
2018-11-06T01:59:34.787Z,10.30
2018-11-06T02:00:34.772Z,10.90
2018-11-06T02:01:34.748Z,10.50
2018-11-06T02:02:34.733Z,10.80
2018-11-06T02:03:34.708Z,11.20
2018-11-06T02:04:34.689Z,11.20
2018-11-06T02:05:34.675Z,11.20
2018-11-06T02:06:34.651Z,11.60
2018-11-06T02:07:34.635Z,10.80
2018-11-06T02:08:34.615Z,10.40
2018-11-06T02:09:34.592Z,10.90
2018-11-06T02:10:34.575Z,10.70
2018-11-06T02:11:34.553Z,10.80
2018-11-06T02:12:34.538Z,11.30
2018-11-06T02:13:34.518Z,11.30
2018-11-06T02:14:34.497Z,11.30
2018-11-06T02:15:34.479Z,10.50
2018-11-06T02:16:34.459Z,11.10
2018-11-06T02:17:34.437Z,10.90
2018-11-06T02:18:34.416Z,11.30
2018-11-06T02:19:34.404Z,10.70
2018-11-06T02:20:34.377Z,11.40
2018-11-06T02:21:34.359Z,11.30
2018-11-06T02:22:34.345Z,11.60
2018-11-06T02:23:34.325Z,11.00
2018-11-06T02:24:34.306Z,11.30
2018-11-06T02:25:34.283Z,10.70
2018-11-06T02:26:34.262Z,11.80
2018-11-06T02:27:34.244Z,11.70
2018-11-06T02:28:34.225Z,11.60
2018-11-06T02:29:34.205Z,11.80
2018-11-06T02:30:34.189Z,11.50
2018-11-06T02:31:34.165Z,11.70
2018-11-06T02:32:34.230Z,11.90
2018-11-06T02:33:34.129Z,11.40
2018-11-06T02:34:34.111Z,11.80
2018-11-06T02:35:34.088Z,11.80
2018-11-06T02:36:34.070Z,12.20
2018-11-06T02:37:34.052Z,12.20
2018-11-06T02:38:34.030Z,11.70
2018-11-06T02:39:34.017Z,12.30
2018-11-06T02:40:33.993Z,11.90
2018-11-06T02:41:33.971Z,12.30
2018-11-06T02:42:33.953Z,12.40
2018-11-06T02:43:33.933Z,11.80
2018-11-06T02:44:33.917Z,12.60
2018-11-06T02:45:33.897Z,12.30
2018-11-06T02:46:33.873Z,12.00
2018-11-06T02:47:33.858Z,12.90
2018-11-06T02:48:33.844Z,12.30
2018-11-06T02:49:33.819Z,12.70
2018-11-06T02:50:33.797Z,12.60
2018-11-06T02:51:33.773Z,12.80
2018-11-06T02:52:33.768Z,12.30
2018-11-06T02:53:33.741Z,12.50
2018-11-06T02:54:33.716Z,13.10
2018-11-06T02:55:33.701Z,13.30
2018-11-06T02:56:33.682Z,13.10
2018-11-06T02:57:33.664Z,12.60
2018-11-06T02:58:33.642Z,12.90
2018-11-06T02:59:33.620Z,13.30
2018-11-06T03:00:33.601Z,13.10
2018-11-06T03:01:33.584Z,13.50
2018-11-06T03:02:33.563Z,13.20
2018-11-06T03:03:33.545Z,12.90
2018-11-06T03:04:33.526Z,12.30
2018-11-06T03:05:33.508Z,13.10
2018-11-06T03:06:33.490Z,12.60
2018-11-06T03:07:33.463Z,13.60
2018-11-06T03:08:33.446Z,13.70
2018-11-06T03:09:33.426Z,12.70
2018-11-06T03:10:33.525Z,13.50
2018-11-06T03:11:33.391Z,13.50
2018-11-06T03:12:33.370Z,13.60
2018-11-06T03:13:33.351Z,13.20
2018-11-06T03:14:33.331Z,12.60
2018-11-06T03:15:33.316Z,12.90
2018-11-06T03:16:33.302Z,13.80
2018-11-06T03:17:33.273Z,12.80
2018-11-06T03:18:33.255Z,13.10
2018-11-06T03:19:33.241Z,13.20
2018-11-06T03:20:33.215Z,12.60
2018-11-06T03:21:33.195Z,13.10
2018-11-06T03:22:33.173Z,13.60
2018-11-06T03:23:33.156Z,13.00
2018-11-06T03:24:33.140Z,13.20
2018-11-06T03:25:33.121Z,13.40
2018-11-06T03:26:33.100Z,13.60
2018-11-06T03:27:33.079Z,12.90
2018-11-06T03:28:33.057Z,13.30
2018-11-06T03:29:33.043Z,13.00
2018-11-06T03:30:33.025Z,13.30
2018-11-06T03:31:33.004Z,12.60
2018-11-06T03:32:32.984Z,13.20
2018-11-06T03:33:32.971Z,13.40
2018-11-06T03:34:32.945Z,13.90
2018-11-06T03:35:32.918Z,13.80
2018-11-06T03:36:32.905Z,14.10
2018-11-06T03:37:32.892Z,13.60
2018-11-06T03:38:32.868Z,13.90
2018-11-06T03:39:32.849Z,13.60
2018-11-06T03:40:32.824Z,13.20
2018-11-06T03:41:32.808Z,13.50
2018-11-06T03:42:32.793Z,14.20
2018-11-06T03:43:32.770Z,13.30
2018-11-06T03:44:32.752Z,13.40
2018-11-06T03:45:32.736Z,13.70
2018-11-06T03:46:32.718Z,13.80
2018-11-06T03:47:32.689Z,13.60
2018-11-06T03:48:32.676Z,14.00
2018-11-06T03:49:32.660Z,13.80
2018-11-06T03:50:32.633Z,14.60
2018-11-06T03:51:32.616Z,14.70
2018-11-06T03:52:32.594Z,14.40
2018-11-06T03:53:32.576Z,14.10
2018-11-06T03:54:32.560Z,14.50
2018-11-06T03:55:32.539Z,15.00
2018-11-06T03:56:32.523Z,14.60
2018-11-06T03:57:32.498Z,15.50
2018-11-06T03:58:32.478Z,14.70
2018-11-06T03:59:32.460Z,14.50
2018-11-06T04:00:32.440Z,14.10
2018-11-06T04:01:32.423Z,14.60
2018-11-06T04:02:32.405Z,14.50
2018-11-06T04:03:32.384Z,14.30
2018-11-06T04:04:32.372Z,14.50
2018-11-06T04:05:32.346Z,14.70
2018-11-06T04:06:32.322Z,14.60
2018-11-06T04:07:32.312Z,15.20
2018-11-06T04:08:32.291Z,15.20
2018-11-06T04:09:32.266Z,15.20
2018-11-06T04:10:32.251Z,14.70
2018-11-06T04:11:32.235Z,14.50
2018-11-06T04:12:32.213Z,14.80
2018-11-06T04:13:32.193Z,15.00
2018-11-06T04:14:32.171Z,14.90
2018-11-06T04:15:32.157Z,14.90
2018-11-06T04:16:32.136Z,15.70
2018-11-06T04:17:32.112Z,16.50
2018-11-06T04:18:32.094Z,15.40
2018-11-06T04:19:32.078Z,15.70
2018-11-06T04:20:32.050Z,16.00
2018-11-06T04:21:32.035Z,15.40
2018-11-06T04:22:32.018Z,15.30
2018-11-06T04:23:31.998Z,15.60
2018-11-06T04:24:31.976Z,15.20
2018-11-06T04:25:31.959Z,15.30
2018-11-06T04:26:31.937Z,16.30
2018-11-06T04:27:31.924Z,15.80
2018-11-06T04:28:31.909Z,15.50
2018-11-06T04:29:31.880Z,15.50
2018-11-06T04:30:31.861Z,15.50
2018-11-06T04:31:31.843Z,15.50
2018-11-06T04:32:31.822Z,16.20
2018-11-06T04:33:31.804Z,16.70
2018-11-06T04:34:31.788Z,15.40
2018-11-06T04:35:31.768Z,16.10
2018-11-06T04:36:31.750Z,16.20
2018-11-06T04:37:31.726Z,16.40
2018-11-06T04:38:31.709Z,16.60
2018-11-06T04:39:31.689Z,15.60
2018-11-06T04:40:31.670Z,15.80
2018-11-06T04:41:31.652Z,16.70
2018-11-06T04:42:31.629Z,17.20
2018-11-06T04:43:31.614Z,17.20
2018-11-06T04:44:31.592Z,17.20
2018-11-06T04:45:31.585Z,16.20
2018-11-06T04:46:31.557Z,15.80
2018-11-06T04:47:31.534Z,16.20
2018-11-06T04:48:31.518Z,16.20
2018-11-06T04:49:31.497Z,16.40
2018-11-06T04:50:31.476Z,16.30
2018-11-06T04:51:31.457Z,18.30
2018-11-06T04:52:31.438Z,17.70
2018-11-06T04:53:31.418Z,16.80
2018-11-06T04:54:31.402Z,16.00
2018-11-06T04:55:31.378Z,16.90
2018-11-06T04:56:31.362Z,16.90
2018-11-06T04:57:31.336Z,17.10
2018-11-06T04:58:31.324Z,16.90
2018-11-06T04:59:31.304Z,17.30
2018-11-06T05:00:31.286Z,16.80
2018-11-06T05:01:31.264Z,18.60
2018-11-06T05:02:31.771Z,18.00
2018-11-06T05:03:31.225Z,17.30
2018-11-06T05:04:31.202Z,17.10
2018-11-06T05:05:31.188Z,17.60
2018-11-06T05:06:31.168Z,18.00
2018-11-06T05:07:31.152Z,17.50
2018-11-06T05:08:31.130Z,17.60
2018-11-06T05:09:31.115Z,18.50
2018-11-06T05:10:31.093Z,17.30
2018-11-06T05:11:31.072Z,17.00
2018-11-06T05:12:31.051Z,18.30
2018-11-06T05:13:31.036Z,17.30
2018-11-06T05:14:31.013Z,18.80
2018-11-06T05:15:30.994Z,18.70
2018-11-06T05:16:30.977Z,18.70
2018-11-06T05:17:30.957Z,18.20
2018-11-06T05:18:30.940Z,18.90
2018-11-06T05:19:30.921Z,18.20
2018-11-06T05:20:30.899Z,18.00
2018-11-06T05:21:30.882Z,18.40
2018-11-06T05:22:30.862Z,19.10
2018-11-06T05:23:30.839Z,18.80
2018-11-06T05:24:30.820Z,18.60
2018-11-06T05:25:30.930Z,19.50
2018-11-06T05:26:30.787Z,19.60
2018-11-06T05:27:30.911Z,18.40
2018-11-06T05:28:30.742Z,18.90
2018-11-06T05:29:30.722Z,19.70
2018-11-06T05:30:30.706Z,19.60
2018-11-06T05:31:30.695Z,18.80
2018-11-06T05:32:30.669Z,19.10
2018-11-06T05:33:30.647Z,18.80
2018-11-06T05:34:30.627Z,19.40
2018-11-06T05:35:30.610Z,19.80
2018-11-06T05:36:30.589Z,19.60
2018-11-06T05:37:30.569Z,19.50
2018-11-06T05:38:30.552Z,18.50
2018-11-06T05:39:30.624Z,19.90
2018-11-06T05:40:30.514Z,19.10
2018-11-06T05:41:30.493Z,20.00
2018-11-06T05:42:30.475Z,20.00
2018-11-06T05:43:30.451Z,19.90
2018-11-06T05:44:30.443Z,20.60
2018-11-06T05:45:30.439Z,20.50
2018-11-06T05:46:30.403Z,20.10
2018-11-06T05:47:30.381Z,19.70
2018-11-06T05:48:30.366Z,20.40
2018-11-06T05:49:30.343Z,20.40
2018-11-06T05:50:30.321Z,20.60
2018-11-06T05:51:30.299Z,21.00
2018-11-06T05:52:30.279Z,20.00
2018-11-06T05:53:30.266Z,20.20
2018-11-06T05:54:30.248Z,20.20
2018-11-06T05:55:30.222Z,20.60
2018-11-06T05:56:30.207Z,20.50
2018-11-06T05:57:30.185Z,20.20
2018-11-06T05:58:30.168Z,19.70
2018-11-06T05:59:30.151Z,20.00
2018-11-06T06:00:30.181Z,20.20
2018-11-06T06:01:30.113Z,20.20
2018-11-06T06:02:30.087Z,20.40
2018-11-06T06:03:30.071Z,20.90
2018-11-06T06:04:30.053Z,20.30
2018-11-06T06:05:30.039Z,20.10
2018-11-06T06:06:30.011Z,20.20
2018-11-06T06:07:29.995Z,20.50
2018-11-06T06:08:29.982Z,20.00
2018-11-06T06:09:29.959Z,20.40
2018-11-06T06:10:29.939Z,20.10
2018-11-06T06:11:29.919Z,20.70
2018-11-06T06:12:29.897Z,20.70
2018-11-06T06:13:29.885Z,20.20
2018-11-06T06:14:29.859Z,20.90
2018-11-06T06:15:29.843Z,20.20
2018-11-06T06:16:29.829Z,21.20
2018-11-06T06:17:29.808Z,19.90
2018-11-06T06:18:29.786Z,22.40
2018-11-06T06:19:29.764Z,21.90
2018-11-06T06:20:29.751Z,21.20
2018-11-06T06:21:29.725Z,21.40
2018-11-06T06:22:29.727Z,20.30
2018-11-06T06:23:29.696Z,21.80
2018-11-06T06:24:29.671Z,21.10
2018-11-06T06:25:29.658Z,22.10
2018-11-06T06:26:29.636Z,21.00
2018-11-06T06:27:29.617Z,20.90
2018-11-06T06:28:29.684Z,21.50
2018-11-06T06:29:29.581Z,21.50
2018-11-06T06:30:29.555Z,22.60
2018-11-06T06:31:29.541Z,21.50
2018-11-06T06:32:29.521Z,20.80
2018-11-06T06:33:29.501Z,21.60
2018-11-06T06:34:29.495Z,21.90
2018-11-06T06:35:29.466Z,22.30
2018-11-06T06:36:29.443Z,21.40
2018-11-06T06:37:29.428Z,20.70
2018-11-06T06:38:29.511Z,21.20
2018-11-06T06:39:29.388Z,20.80
2018-11-06T06:40:29.375Z,21.10
2018-11-06T06:41:29.354Z,21.20
2018-11-06T06:42:29.334Z,21.10
2018-11-06T06:43:29.314Z,21.20
2018-11-06T06:44:29.291Z,21.70
2018-11-06T06:45:29.270Z,21.00
2018-11-06T06:46:29.337Z,21.00
2018-11-06T06:47:29.240Z,21.90
2018-11-06T06:48:29.220Z,19.90
2018-11-06T06:49:29.199Z,20.50
2018-11-06T06:50:29.178Z,20.80
2018-11-06T06:51:29.164Z,20.50
2018-11-06T06:52:29.144Z,21.00
2018-11-06T06:53:29.127Z,20.70
2018-11-06T06:54:29.338Z,20.60
2018-11-06T06:55:29.087Z,19.90
2018-11-06T06:56:29.072Z,20.20
2018-11-06T06:57:29.051Z,20.30
2018-11-06T06:58:29.036Z,19.50
2018-11-06T06:59:29.014Z,19.80
2018-11-06T07:00:28.995Z,20.00
2018-11-06T07:01:28.976Z,19.20
2018-11-06T07:02:28.966Z,19.60
2018-11-06T07:03:28.944Z,19.60
2018-11-06T07:04:28.920Z,19.80
2018-11-06T07:05:28.898Z,19.50
2018-11-06T07:06:28.883Z,19.50
2018-11-06T07:07:28.867Z,19.00
2018-11-06T07:08:28.844Z,19.10
2018-11-06T07:09:28.824Z,19.70
2018-11-06T07:10:28.806Z,19.80
2018-11-06T07:11:28.790Z,19.30
2018-11-06T07:12:28.773Z,19.90
2018-11-06T07:13:28.752Z,21.20
2018-11-06T07:14:28.737Z,20.70
2018-11-06T07:15:28.715Z,20.00
2018-11-06T07:16:28.692Z,20.50
2018-11-06T07:17:28.679Z,20.00
2018-11-06T07:18:28.716Z,18.80
2018-11-06T07:19:28.638Z,20.80
2018-11-06T07:20:28.619Z,21.20
2018-11-06T07:21:28.602Z,20.70
2018-11-06T07:22:28.587Z,19.60
2018-11-06T07:23:28.564Z,20.60
2018-11-06T07:24:28.548Z,19.70
2018-11-06T07:25:28.528Z,20.20
2018-11-06T07:26:28.506Z,21.10
2018-11-06T07:27:28.490Z,20.30
2018-11-06T07:28:28.472Z,19.80
2018-11-06T07:29:28.456Z,19.30
2018-11-06T07:30:28.439Z,20.00
2018-11-06T07:31:28.417Z,19.50
2018-11-06T07:32:28.398Z,19.30
2018-11-06T07:33:28.381Z,19.40
2018-11-06T07:34:28.418Z,18.30
2018-11-06T07:35:28.513Z,18.30
2018-11-06T07:36:28.624Z,17.50
2018-11-06T07:37:28.304Z,17.50
2018-11-06T07:38:28.289Z,18.60
2018-11-06T07:39:28.272Z,17.70
2018-11-06T07:40:28.263Z,17.80
2018-11-06T07:41:28.236Z,16.90
2018-11-06T07:42:28.211Z,17.70
2018-11-06T07:43:28.197Z,17.10
2018-11-06T07:44:28.182Z,17.90
2018-11-06T07:45:28.165Z,17.90
2018-11-06T07:46:28.144Z,17.00
2018-11-06T07:47:28.126Z,18.20
2018-11-06T07:48:28.119Z,17.80
2018-11-06T07:49:28.093Z,17.30
2018-11-06T07:50:28.128Z,18.50
2018-11-06T07:51:28.058Z,18.30
2018-11-06T07:52:28.038Z,17.50
2018-11-06T07:53:28.021Z,17.50
2018-11-06T07:54:28.002Z,16.70
2018-11-06T07:55:28.005Z,17.20
2018-11-06T07:56:27.972Z,17.50
2018-11-06T07:57:27.952Z,17.20
2018-11-06T07:58:27.934Z,16.40
2018-11-06T07:59:27.917Z,17.00
2018-11-06T08:00:27.897Z,16.30
2018-11-06T08:01:27.883Z,17.40
2018-11-06T08:02:27.864Z,16.30
2018-11-06T08:03:27.846Z,17.90
2018-11-06T08:04:27.866Z,17.10
2018-11-06T08:05:27.818Z,16.40
2018-11-06T08:06:27.850Z,16.80
2018-11-06T08:07:27.780Z,17.30
2018-11-06T08:08:27.761Z,16.10
2018-11-06T08:09:27.756Z,16.90
2018-11-06T08:10:27.731Z,16.30
2018-11-06T08:11:27.715Z,15.30
2018-11-06T08:12:27.699Z,15.20
2018-11-06T08:13:27.681Z,16.00
2018-11-06T08:14:27.769Z,15.60
2018-11-06T08:15:27.647Z,15.60
2018-11-06T08:16:27.641Z,15.10
2018-11-06T08:17:27.616Z,15.40
2018-11-06T08:18:27.601Z,14.70
2018-11-06T08:19:27.585Z,14.50
2018-11-06T08:20:27.574Z,15.40
2018-11-06T08:21:27.557Z,15.00
2018-11-06T08:22:27.537Z,15.10
2018-11-06T08:23:27.527Z,14.40
2018-11-06T08:24:27.511Z,14.70
2018-11-06T08:25:27.499Z,14.50
2018-11-06T08:26:27.486Z,13.50
2018-11-06T08:27:27.468Z,14.90
2018-11-06T08:28:27.449Z,14.50
2018-11-06T08:29:27.434Z,14.80
2018-11-06T08:30:27.460Z,15.70
2018-11-06T08:31:27.740Z,14.20
2018-11-06T08:32:27.905Z,14.60
2018-11-06T08:33:27.373Z,15.80
2018-11-06T08:34:27.361Z,14.50
2018-11-06T08:35:27.342Z,15.10
2018-11-06T08:36:27.374Z,14.70
2018-11-06T08:37:27.314Z,14.70
2018-11-06T08:38:27.298Z,14.40
2018-11-06T08:39:27.283Z,16.10
2018-11-06T08:40:27.268Z,15.20
2018-11-06T08:41:27.257Z,15.70
2018-11-06T08:42:27.294Z,15.40
2018-11-06T08:43:27.224Z,15.70
2018-11-06T08:44:27.230Z,16.20
2018-11-06T08:45:27.192Z,15.30
2018-11-06T08:46:27.179Z,15.80
2018-11-06T08:47:27.165Z,15.60
2018-11-06T08:48:27.159Z,14.80
2018-11-06T08:49:27.138Z,15.90
2018-11-06T08:50:27.119Z,15.40
2018-11-06T08:51:27.104Z,15.20
2018-11-06T08:52:27.092Z,15.30
2018-11-06T08:53:27.079Z,15.30
2018-11-06T08:54:27.071Z,15.00
2018-11-06T08:55:27.051Z,15.00
2018-11-06T08:56:27.033Z,15.70
2018-11-06T08:57:27.019Z,15.20
2018-11-06T08:58:27.005Z,14.80
2018-11-06T08:59:26.991Z,14.30
2018-11-06T09:00:26.972Z,13.60
2018-11-06T09:01:26.959Z,14.80
2018-11-06T09:02:27.003Z,14.60
2018-11-06T09:03:26.927Z,14.40
2018-11-06T09:04:26.924Z,13.80
2018-11-06T09:05:26.901Z,15.00
2018-11-06T09:06:26.885Z,13.80
2018-11-06T09:07:26.873Z,13.90
2018-11-06T09:08:26.859Z,13.80
2018-11-06T09:09:26.845Z,13.40
2018-11-06T09:10:26.830Z,13.50
2018-11-06T09:11:26.813Z,13.60
2018-11-06T09:12:26.807Z,13.90
2018-11-06T09:13:26.790Z,13.10
2018-11-06T09:14:26.772Z,13.70
2018-11-06T09:15:26.762Z,13.00
2018-11-06T09:16:26.756Z,12.70
2018-11-06T09:17:26.740Z,13.20
2018-11-06T09:18:26.728Z,13.50
2018-11-06T09:19:26.714Z,12.90
2018-11-06T09:20:26.700Z,13.50
2018-11-06T09:21:26.685Z,13.40
2018-11-06T09:22:26.678Z,13.20
2018-11-06T09:23:26.664Z,12.30
2018-11-06T09:24:26.652Z,12.10
2018-11-06T09:25:26.638Z,12.10
2018-11-06T09:26:26.623Z,13.20
2018-11-06T09:27:26.614Z,12.70
2018-11-06T09:28:26.607Z,12.30
2018-11-06T09:29:26.597Z,12.30
2018-11-06T09:30:26.587Z,12.50
2018-11-06T09:31:26.580Z,12.60
2018-11-06T09:32:26.561Z,11.90
2018-11-06T09:33:26.551Z,12.80
2018-11-06T09:34:26.540Z,12.40
2018-11-06T09:35:26.528Z,11.30
2018-11-06T09:36:26.516Z,12.40
2018-11-06T09:37:26.514Z,11.80
2018-11-06T09:38:26.497Z,11.40
2018-11-06T09:39:26.487Z,11.50
2018-11-06T09:40:26.475Z,11.80
2018-11-06T09:41:26.488Z,11.90
2018-11-06T09:42:26.456Z,11.80
2018-11-06T09:43:26.444Z,11.90
2018-11-06T09:44:26.434Z,11.60
2018-11-06T09:45:26.433Z,11.30
2018-11-06T09:46:26.412Z,11.90
2018-11-06T09:47:26.403Z,11.50
2018-11-06T09:48:26.394Z,11.70
2018-11-06T09:49:26.390Z,11.20
2018-11-06T09:50:26.384Z,11.50
2018-11-06T09:51:26.369Z,11.70
2018-11-06T09:52:26.363Z,12.00
2018-11-06T09:53:26.349Z,11.10
2018-11-06T09:54:26.339Z,11.80
2018-11-06T09:55:26.333Z,10.90
2018-11-06T09:56:26.316Z,11.30
2018-11-06T09:57:26.311Z,12.00
2018-11-06T09:58:26.299Z,11.50
2018-11-06T09:59:26.288Z,11.50
2018-11-06T10:00:26.277Z,11.30
2018-11-06T10:01:26.270Z,10.90
2018-11-06T10:02:26.267Z,11.40
2018-11-06T10:03:26.250Z,11.90
2018-11-06T10:04:26.242Z,10.50
2018-11-06T10:05:26.232Z,10.90
2018-11-06T10:06:26.336Z,11.10
2018-11-06T10:07:26.465Z,11.00
2018-11-06T10:08:26.202Z,10.80
2018-11-06T10:09:26.192Z,10.80
2018-11-06T10:10:26.184Z,10.20
2018-11-06T10:11:26.265Z,11.00
2018-11-06T10:12:26.165Z,10.50
2018-11-06T10:13:26.156Z,11.10
2018-11-06T10:14:26.139Z,10.70
2018-11-06T10:15:26.150Z,10.60
2018-11-06T10:16:26.126Z,11.00
2018-11-06T10:17:26.113Z,10.90
2018-11-06T10:18:26.103Z,10.90
2018-11-06T10:19:26.089Z,10.10
2018-11-06T10:20:26.096Z,10.70
2018-11-06T10:21:26.197Z,9.90
2018-11-06T10:22:26.061Z,10.50
2018-11-06T10:23:26.053Z,11.20
2018-11-06T10:24:26.043Z,10.50
2018-11-06T10:25:26.035Z,10.10
2018-11-06T10:26:26.025Z,11.00
2018-11-06T10:27:26.013Z,10.70
2018-11-06T10:28:26.008Z,10.70
2018-11-06T10:29:25.998Z,10.30
2018-11-06T10:30:25.985Z,10.70
2018-11-06T10:31:25.976Z,10.40
2018-11-06T10:32:25.969Z,10.40
2018-11-06T10:33:25.957Z,10.60
2018-11-06T10:34:25.947Z,10.40
2018-11-06T10:35:25.933Z,10.60
2018-11-06T10:36:25.924Z,10.70
2018-11-06T10:37:25.917Z,10.90
2018-11-06T10:38:25.907Z,10.40
2018-11-06T10:39:25.897Z,10.60
2018-11-06T10:40:25.893Z,10.50
2018-11-06T10:41:25.874Z,10.70
2018-11-06T10:42:25.863Z,11.00
2018-11-06T10:43:25.854Z,10.40
2018-11-06T10:44:25.840Z,10.60
2018-11-06T10:45:25.832Z,10.90
2018-11-06T10:46:25.826Z,10.70
2018-11-06T10:47:25.811Z,10.60
2018-11-06T10:48:25.799Z,10.70
2018-11-06T10:49:25.793Z,10.10
2018-11-06T10:50:25.783Z,10.90
2018-11-06T10:51:25.773Z,10.80
2018-11-06T10:52:25.809Z,10.30
2018-11-06T10:53:25.751Z,10.40
2018-11-06T10:54:25.747Z,10.00
2018-11-06T10:55:25.729Z,10.30
2018-11-06T10:56:25.722Z,10.00
2018-11-06T10:57:25.711Z,10.10
2018-11-06T10:58:25.701Z,11.00
2018-11-06T10:59:25.690Z,9.20
2018-11-06T11:00:25.680Z,10.40
2018-11-06T11:01:25.662Z,10.00
2018-11-06T11:02:25.658Z,10.80
2018-11-06T11:03:25.643Z,9.80
2018-11-06T11:04:25.633Z,10.10
2018-11-06T11:05:25.626Z,10.30
2018-11-06T11:06:25.613Z,10.10
2018-11-06T11:07:25.609Z,9.80
2018-11-06T11:08:25.593Z,9.90
2018-11-06T11:09:25.583Z,10.30
2018-11-06T11:10:25.570Z,10.30
2018-11-06T11:11:25.561Z,10.80
2018-11-06T11:12:25.569Z,10.70
2018-11-06T11:13:25.573Z,10.50
2018-11-06T11:14:25.530Z,11.00
2018-11-06T11:15:25.517Z,10.80
2018-11-06T11:16:25.507Z,10.50
2018-11-06T11:17:25.497Z,10.50
2018-11-06T11:18:25.487Z,10.70
2018-11-06T11:19:25.479Z,10.90
2018-11-06T11:20:25.463Z,10.30
2018-11-06T11:21:25.458Z,10.70
2018-11-06T11:22:25.446Z,10.20
2018-11-06T11:23:25.431Z,10.00
2018-11-06T11:24:25.425Z,11.10
2018-11-06T11:25:25.468Z,10.60
2018-11-06T11:26:25.399Z,10.90
2018-11-06T11:27:25.387Z,10.80
2018-11-06T11:28:25.382Z,11.20
2018-11-06T11:29:25.370Z,10.00
2018-11-06T11:30:25.356Z,10.60
2018-11-06T11:31:25.345Z,10.30
2018-11-06T11:32:25.337Z,10.20
2018-11-06T11:33:25.328Z,10.50
2018-11-06T11:34:25.330Z,10.10
2018-11-06T11:35:25.303Z,9.70
2018-11-06T11:36:25.291Z,11.00
2018-11-06T11:37:25.280Z,9.80
2018-11-06T11:38:25.271Z,10.10
2018-11-06T11:39:25.261Z,10.20
2018-11-06T11:40:25.248Z,10.10
2018-11-06T11:41:25.236Z,10.60
2018-11-06T11:42:25.223Z,10.30
2018-11-06T11:43:25.216Z,10.70
2018-11-06T11:44:25.205Z,9.70
2018-11-06T11:45:25.197Z,10.50
2018-11-06T11:46:25.193Z,11.30
2018-11-06T11:47:25.171Z,10.90
2018-11-06T11:48:25.158Z,10.60
2018-11-06T11:49:25.148Z,11.20
2018-11-06T11:50:25.137Z,11.00
2018-11-06T11:51:25.123Z,11.50
2018-11-06T11:52:25.114Z,10.50
2018-11-06T11:53:25.103Z,11.00
2018-11-06T11:54:25.088Z,11.00
2018-11-06T11:55:25.081Z,10.90
2018-11-06T11:56:25.115Z,10.70
2018-11-06T11:57:25.057Z,9.90
2018-11-06T11:58:25.046Z,11.20
2018-11-06T11:59:25.034Z,11.30
2018-11-06T12:00:25.023Z,10.30
2018-11-06T12:01:25.013Z,10.60
2018-11-06T12:02:25.000Z,11.60
2018-11-06T12:03:24.990Z,10.90
2018-11-06T12:04:24.980Z,10.80
2018-11-06T12:05:24.964Z,11.70
2018-11-06T12:06:24.956Z,11.20
2018-11-06T12:07:24.940Z,10.50
2018-11-06T12:08:24.926Z,11.20
2018-11-06T12:09:24.918Z,10.90
2018-11-06T12:10:24.908Z,10.50
2018-11-06T12:11:24.893Z,11.10
2018-11-06T12:12:24.882Z,10.30
2018-11-06T12:13:24.872Z,10.00
2018-11-06T12:14:24.911Z,10.80
2018-11-06T12:15:24.846Z,10.30
2018-11-06T12:16:24.836Z,10.80
2018-11-06T12:17:24.856Z,9.80
2018-11-06T12:18:24.885Z,11.30
2018-11-06T12:19:24.800Z,10.80
2018-11-06T12:20:24.788Z,10.70
2018-11-06T12:21:24.777Z,11.30
2018-11-06T12:22:24.767Z,10.80
2018-11-06T12:23:24.760Z,11.50
2018-11-06T12:24:24.840Z,10.60
2018-11-06T12:25:24.987Z,11.00
2018-11-06T12:26:24.746Z,10.70
2018-11-06T12:27:24.702Z,11.40
2018-11-06T12:28:24.692Z,11.40
2018-11-06T12:29:24.680Z,11.70
2018-11-06T12:30:24.670Z,11.50
2018-11-06T12:31:24.659Z,10.50
2018-11-06T12:32:24.684Z,11.10
2018-11-06T12:33:24.628Z,11.30
2018-11-06T12:34:24.621Z,11.50
2018-11-06T12:35:24.605Z,11.50
2018-11-06T12:36:24.669Z,11.50
2018-11-06T12:37:24.584Z,11.10
2018-11-06T12:38:24.572Z,11.30
2018-11-06T12:39:24.565Z,11.00
2018-11-06T12:40:24.552Z,11.30
2018-11-06T12:41:24.539Z,11.10
2018-11-06T12:42:24.522Z,11.20
2018-11-06T12:43:24.534Z,11.40
2018-11-06T12:44:24.496Z,11.80
2018-11-06T12:45:24.484Z,11.20
2018-11-06T12:46:24.472Z,12.10
2018-11-06T12:47:24.462Z,10.90
2018-11-06T12:48:24.452Z,11.70
2018-11-06T12:49:24.436Z,11.20
2018-11-06T12:50:24.510Z,10.90
2018-11-06T12:51:24.414Z,11.00
2018-11-06T12:52:24.400Z,10.70
2018-11-06T12:53:24.390Z,10.70
2018-11-06T12:54:24.376Z,11.10